Time;durP1;ratioP1;P1;durP2;ratioP2;P2;SDS_P1;SDS_P2;PMS_P1;PMS_P2;Temp;Humidity;BMP_temperature;BMP_pressure;BME280_temperature;BME280_humidity;BME280_pressure;Samples;Min_cycle;Max_cycle;Signal;HPM_P1;HPM_P2
2023/07/14 00:01:44;;;;;;;8.93;4.65;;;;;;;14.29;100.00;98525.56;5058938;28;20052;-41
2023/07/14 00:04:12;;;;;;;7.13;4.57;;;;;;;14.00;100.00;98504.88;5071964;28;20040;-41
2023/07/14 00:06:40;;;;;;;6.88;4.93;;;;;;;14.19;100.00;98529.75;5040253;28;20044;-41
2023/07/14 00:09:15;;;;;;;8.18;4.40;;;;;;;14.19;100.00;98522.75;5055966;28;20505;-41
2023/07/14 00:11:41;;;;;;;8.18;4.35;;;;;;;13.97;100.00;98492.00;5054459;28;20047;-39
2023/07/14 00:14:07;;;;;;;8.80;4.47;;;;;;;14.19;100.00;98521.91;5058598;28;20032;-40
2023/07/14 00:16:33;;;;;;;10.40;5.35;;;;;;;13.95;100.00;98480.00;5059193;28;20036;-40
2023/07/14 00:18:59;;;;;;;7.32;4.30;;;;;;;14.25;100.00;98530.19;5067067;28;20178;-40
2023/07/14 00:21:26;;;;;;;7.22;4.43;;;;;;;14.29;100.00;98533.41;5064516;28;20036;-40
2023/07/14 00:24:00;;;;;;;7.15;3.83;;;;;;;14.29;100.00;98533.41;5063329;28;20524;-40
2023/07/14 00:26:29;;;;;;;7.07;4.57;;;;;;;14.32;100.00;98535.84;5059549;28;20040;-40
2023/07/14 00:28:58;;;;;;;7.35;4.40;;;;;;;14.30;100.00;98535.09;5039321;28;20131;-41
2023/07/14 00:31:24;;;;;;;7.07;4.13;;;;;;;14.29;100.00;98533.41;5040779;28;20084;-40
2023/07/14 00:33:57;;;;;;;6.30;4.00;;;;;;;14.30;100.00;98530.72;5056326;28;20073;-40
2023/07/14 00:36:24;;;;;;;10.40;4.90;;;;;;;14.33;100.00;98538.38;5058778;28;21579;-41
2023/07/14 00:38:50;;;;;;;7.45;4.90;;;;;;;14.36;100.00;98534.69;5055753;28;20520;-41
2023/07/14 00:41:19;;;;;;;8.35;4.55;;;;;;;14.38;100.00;98532.84;5064574;28;20044;-41
2023/07/14 00:43:45;;;;;;;6.97;4.43;;;;;;;14.23;100.00;98505.09;5047267;28;20127;-41
2023/07/14 00:46:29;;;;;;;5.25;3.85;;;;;;;14.40;100.00;98544.03;5048840;28;20044;-41
2023/07/14 00:49:00;;;;;;;6.10;4.30;;;;;;;14.42;100.00;98534.31;5049604;28;20039;-41
2023/07/14 00:51:29;;;;;;;7.78;4.90;;;;;;;14.41;100.00;98540.47;5003782;28;20479;-41
2023/07/14 00:53:56;;;;;;;7.88;4.43;;;;;;;14.41;100.00;98543.94;5050755;28;20360;-42
2023/07/14 00:56:31;;;;;;;5.78;4.13;;;;;;;14.30;100.00;98527.25;5043316;28;20133;-40
2023/07/14 00:58:58;;;;;;;7.45;4.25;;;;;;;14.45;100.00;98546.31;5056212;28;20033;-39
2023/07/14 01:01:25;;;;;;;5.38;4.03;;;;;;;14.45;100.00;98551.56;5049226;28;20075;-39
2023/07/14 01:03:55;;;;;;;8.68;4.40;;;;;;;14.45;100.00;98546.31;5067393;28;20032;-41
2023/07/14 01:06:25;;;;;;;7.57;4.10;;;;;;;14.48;100.00;98553.97;5066808;28;20144;-40
2023/07/14 01:08:56;;;;;;;9.60;4.50;;;;;;;14.49;100.00;98559.13;5067210;28;20606;-40
2023/07/14 01:11:28;;;;;;;6.95;4.13;;;;;;;14.51;100.00;98561.59;5056480;28;20044;-40
2023/07/14 01:13:55;;;;;;;11.32;4.43;;;;;;;14.51;100.00;98561.59;5046794;28;20044;-40
2023/07/14 01:16:22;;;;;;;7.53;4.32;;;;;;;14.55;100.00;98569.13;5048042;28;20052;-40
2023/07/14 01:18:48;;;;;;;6.20;3.85;;;;;;;14.45;100.00;98546.31;5047769;28;20047;-41
2023/07/14 01:21:15;;;;;;;4.75;3.80;;;;;;;14.60;100.00;98563.63;5066623;28;20105;-43
2023/07/14 01:23:51;;;;;;;6.93;3.97;;;;;;;14.64;100.00;98567.69;5067991;28;20726;-41
2023/07/14 01:26:52;;;;;;;7.35;4.40;;;;;;;14.67;100.00;98570.06;5068834;28;20040;-42
2023/07/14 01:29:19;;;;;;;7.88;4.22;;;;;;;14.68;100.00;98564.75;5031637;28;20041;-39
2023/07/14 01:31:45;;;;;;;6.05;4.22;;;;;;;14.63;100.00;98556.38;5032351;28;20519;-42
2023/07/14 01:34:11;;;;;;;6.40;3.92;;;;;;;14.65;100.00;98562.34;5040886;28;20423;-40
2023/07/14 01:36:37;;;;;;;6.90;4.13;;;;;;;14.58;100.00;98549.78;5048995;28;20143;-40
2023/07/14 01:39:03;;;;;;;6.15;4.05;;;;;;;14.70;100.00;98569.88;5063429;28;20044;-40
2023/07/14 01:41:29;;;;;;;6.82;4.15;;;;;;;14.71;100.00;98569.75;5051787;28;20040;-40
2023/07/14 01:44:03;;;;;;;5.95;3.80;;;;;;;14.73;100.00;98570.50;5068706;28;20161;-40
2023/07/14 01:46:29;;;;;;;7.18;3.83;;;;;;;14.75;100.00;98570.41;5069081;28;20461;-41
2023/07/14 01:48:58;;;;;;;7.22;4.00;;;;;;;14.74;100.00;98573.94;5052520;28;20527;-41
2023/07/14 01:51:27;;;;;;;7.75;3.75;;;;;;;14.59;100.00;98546.25;5070623;28;20059;-40
2023/07/14 01:54:06;;;;;;;4.90;3.55;;;;;;;14.76;100.00;98575.50;5062394;28;20140;-40
2023/07/14 01:56:34;;;;;;;5.35;3.90;;;;;;;14.77;100.00;98573.72;5067337;28;20059;-40
2023/07/14 01:59:21;;;;;;;5.72;3.85;;;;;;;14.79;100.00;98572.69;5047615;28;20052;-41
2023/07/14 02:01:49;;;;;;;4.93;3.83;;;;;;;14.79;100.00;98577.94;5031403;28;20044;-41
2023/07/14 02:04:22;;;;;;;5.88;3.80;;;;;;;14.81;100.00;98583.88;5031099;28;20059;-40
2023/07/14 02:06:49;;;;;;;7.50;4.18;;;;;;;14.80;100.00;98581.38;5057550;28;20130;-42
2023/07/14 02:09:20;;;;;;;8.25;4.30;;;;;;;14.80;100.00;98587.47;5105767;28;20036;-40
2023/07/14 02:11:50;;;;;;;6.65;4.35;;;;;;;14.84;100.00;98590.69;5063571;28;20190;-41
2023/07/14 02:14:17;;;;;;;6.07;4.15;;;;;;;14.84;100.00;98590.69;5059929;28;20036;-40
2023/07/14 02:16:46;;;;;;;7.93;4.35;;;;;;;14.77;100.00;98581.59;5062984;28;20040;-40
2023/07/14 02:19:20;;;;;;;6.07;4.07;;;;;;;14.89;100.00;98600.84;5031581;28;20508;-40
2023/07/14 02:21:51;;;;;;;9.43;4.38;;;;;;;14.84;100.00;98598.53;5048794;28;20178;-39
2023/07/14 02:24:20;;;;;;;7.28;4.60;;;;;;;14.86;100.00;98603.69;5048692;28;20040;-40
2023/07/14 02:27:00;;;;;;;8.13;4.80;;;;;;;14.87;100.00;98605.31;5051548;28;20087;-40
2023/07/14 02:29:26;;;;;;;7.03;4.78;;;;;;;14.87;100.00;98607.94;5068800;28;20044;-40
2023/07/14 02:32:15;;;;;;;6.30;4.65;;;;;;;14.87;100.00;98616.63;5066993;28;20110;-40
2023/07/14 02:34:45;;;;;;;7.28;5.30;;;;;;;14.86;100.00;98611.53;5069078;28;20039;-41
2023/07/14 02:38:03;;;;;;;7.85;5.20;;;;;;;14.89;100.00;98622.63;5068057;28;20047;-41
2023/07/14 02:40:36;;;;;;;14.05;5.55;;;;;;;14.86;100.00;98622.84;5068472;28;20504;-41
2023/07/14 02:43:14;;;;;;;7.85;5.60;;;;;;;14.86;100.00;98620.22;5067245;28;20055;-40
2023/07/14 02:45:58;;;;;;;8.52;5.20;;;;;;;14.88;100.00;98627.94;5056833;28;20500;-40
2023/07/14 02:48:44;;;;;;;8.45;5.63;;;;;;;14.88;100.00;98627.94;5067122;28;20044;-40
2023/07/14 02:51:11;;;;;;;9.38;5.85;;;;;;;14.87;100.00;98629.72;5050470;28;20436;-40
2023/07/14 02:53:37;;;;;;;8.05;5.57;;;;;;;14.90;100.00;98634.75;5050453;28;20052;-40
2023/07/14 02:56:03;;;;;;;9.18;6.03;;;;;;;14.92;100.00;98625.00;5067921;28;20044;-40
2023/07/14 02:58:30;;;;;;;7.80;5.93;;;;;;;14.94;100.00;98625.75;5069393;28;20044;-40
2023/07/14 03:00:56;;;;;;;10.77;5.68;;;;;;;14.79;100.00;98601.47;5067601;28;20051;-40
2023/07/14 03:03:22;;;;;;;7.30;5.90;;;;;;;15.02;100.00;98635.72;5067768;28;20119;-39
2023/07/14 03:05:50;;;;;;;10.57;6.18;;;;;;;15.04;100.00;98641.66;5066146;28;20044;-40
2023/07/14 03:08:17;;;;;;;10.88;6.80;;;;;;;15.05;100.00;98646.78;5065881;28;20037;-39
2023/07/14 03:10:44;;;;;;;7.70;5.57;;;;;;;15.07;100.00;98646.69;5068401;28;20079;-40
2023/07/14 03:13:11;;;;;;;7.45;5.40;;;;;;;14.93;100.00;98624.06;5066428;28;20113;-39
2023/07/14 03:15:37;;;;;;;7.25;5.45;;;;;;;15.12;100.00;98649.84;5068826;28;20093;-40
2023/07/14 03:18:04;;;;;;;7.90;5.30;;;;;;;15.17;100.00;98652.97;5059831;28;20818;-41
2023/07/14 03:20:30;;;;;;;9.52;5.25;;;;;;;15.19;100.00;98649.28;5067558;28;20043;-41
2023/07/14 03:22:56;;;;;;;7.85;5.50;;;;;;;15.04;100.00;98621.56;5067978;28;20526;-39
2023/07/14 03:25:22;;;;;;;8.80;5.72;;;;;;;15.25;100.00;98650.63;5046438;28;20048;-40
2023/07/14 03:27:48;;;;;;;8.05;5.45;;;;;;;15.11;100.00;98629.81;5066353;28;20045;-40
2023/07/14 03:30:14;;;;;;;7.82;5.22;;;;;;;15.30;100.00;98653.78;5068603;28;20051;-40
2023/07/14 03:32:40;;;;;;;9.73;5.70;;;;;;;15.22;100.00;98638.63;5067192;28;20508;-40
2023/07/14 03:35:07;;;;;;;7.22;4.75;;;;;;;15.35;100.00;98662.13;5066180;28;20068;-41
2023/07/14 03:37:33;;;;;;;7.68;5.13;;;;;;;15.38;100.00;98667.19;5049727;28;20044;-42
2023/07/14 03:39:59;;;;;;;7.82;4.72;;;;;;;15.39;100.00;98663.59;5050659;28;20522;-41
2023/07/14 03:42:25;;;;;;;6.72;4.78;;;;;;;15.15;100.00;98623.44;5067556;28;20797;-41
2023/07/14 03:44:51;;;;;;;8.20;4.97;;;;;;;15.45;100.00;98668.41;5067470;28;20075;-41
2023/07/14 03:47:17;;;;;;;6.57;5.00;;;;;;;15.24;100.00;98625.41;5082916;28;20480;-39
2023/07/14 03:49:43;;;;;;;6.97;4.68;;;;;;;15.31;100.00;98628.44;5046346;28;20041;-41
2023/07/14 03:52:09;;;;;;;10.30;4.75;;;;;;;15.52;100.00;98658.38;5047323;28;20037;-41
2023/07/14 03:54:35;;;;;;;6.88;4.47;;;;;;;15.52;100.00;98656.59;5053068;28;20517;-40
2023/07/14 03:57:01;;;;;;;7.10;5.10;;;;;;;15.53;100.00;98658.28;5066182;28;20112;-40
2023/07/14 03:59:28;;;;;;;10.40;5.10;;;;;;;15.56;100.00;98672.94;5059736;28;20045;-40
2023/07/14 04:01:54;;;;;;;9.18;4.63;;;;;;;15.58;100.00;98671.03;5062057;28;20119;-40
2023/07/14 04:04:20;;;;;;;9.77;4.82;;;;;;;15.58;100.00;98671.03;5050372;28;20135;-40
2023/07/14 04:06:46;;;;;;;6.65;4.03;;;;;;;15.58;100.00;98674.50;5050061;28;20160;-40
2023/07/14 04:09:13;;;;;;;5.40;3.30;;;;;;;15.61;100.00;98673.44;5066646;28;20645;-42
2023/07/14 04:11:39;;;;;;;8.13;3.72;;;;;;;15.67;100.00;98670.38;5064009;28;20162;-43
2023/07/14 04:14:06;;;;;;;5.30;3.47;;;;;;;15.72;100.00;98673.50;5047519;28;20032;-43
2023/07/14 04:16:33;;;;;;;6.28;3.50;;;;;;;15.74;100.00;98676.03;5060594;28;20052;-43
2023/07/14 04:18:59;;;;;;;6.28;3.90;;;;;;;15.80;100.00;98676.44;5066644;28;20118;-44
2023/07/14 04:21:27;;;;;;;4.55;3.20;;;;;;;15.71;100.00;98644.78;5068048;28;20125;-42
2023/07/14 04:23:54;;;;;;;7.30;3.38;;;;;;;15.94;100.00;98676.28;5048922;28;20450;-43
2023/07/14 04:26:21;;;;;;;4.03;3.08;;;;;;;16.03;100.00;98680.84;5064671;28;20114;-42
2023/07/14 04:28:47;;;;;;;5.20;3.13;;;;;;;16.13;100.00;98685.41;5048860;28;20039;-42
2023/07/14 04:31:13;;;;;;;6.18;3.38;;;;;;;16.19;100.00;98691.06;5060799;28;20048;-42
2023/07/14 04:33:45;;;;;;;6.78;2.35;;;;;;;16.22;100.00;98695.25;5046731;28;20029;-42
2023/07/14 04:36:12;;;;;;;3.35;2.25;;;;;;;16.27;100.00;98699.22;5062340;28;20432;-40
2023/07/14 04:38:47;;;;;;;3.65;2.40;;;;;;;16.29;100.00;98701.69;5062613;28;20043;-41
2023/07/14 04:41:13;;;;;;;5.15;3.03;;;;;;;16.27;100.00;98696.59;5059229;28;20037;-42
2023/07/14 04:43:40;;;;;;;3.80;2.13;;;;;;;16.27;100.00;98698.38;5053206;28;20523;-42
2023/07/14 04:46:06;;;;;;;3.03;2.28;;;;;;;16.26;100.00;98692.28;5065325;28;20048;-42
2023/07/14 04:48:32;;;;;;;3.35;1.67;;;;;;;15.97;100.00;98655.06;5064589;28;20048;-40
2023/07/14 04:50:58;;;;;;;2.75;2.00;;;;;;;16.28;100.00;98700.03;5067264;28;20122;-40
2023/07/14 04:53:24;;;;;;;2.50;1.65;;;;;;;16.31;100.00;98691.94;5065530;28;20440;-41
2023/07/14 04:55:50;;;;;;;8.45;5.07;;;;;;;16.34;100.00;98689.94;5074394;28;20135;-40
2023/07/14 04:58:17;;;;;;;2.70;1.90;;;;;;;16.42;100.00;98686.75;5067879;28;20045;-42
2023/07/14 05:00:45;;;;;;;2.95;2.00;;;;;;;16.44;100.00;98685.66;5065979;28;20040;-39
2023/07/14 05:03:11;;;;;;;3.17;1.67;;;;;;;16.60;100.00;98680.16;5066057;28;20731;-40
2023/07/14 05:05:37;;;;;;;5.85;3.17;;;;;;;16.72;100.00;98675.78;5066282;28;20037;-43
2023/07/14 05:08:03;;;;;;;4.13;2.53;;;;;;;16.81;100.00;98688.19;5061625;28;20047;-41
2023/07/14 05:10:36;;;;;;;3.15;2.20;;;;;;;16.82;100.00;98688.09;5067136;28;20048;-42
2023/07/14 05:13:02;;;;;;;4.28;2.30;;;;;;;16.72;100.00;98678.41;5063199;28;20413;-40
2023/07/14 05:15:28;;;;;;;2.85;2.25;;;;;;;16.80;100.00;98689.97;5065540;28;20044;-41
2023/07/14 05:17:54;;;;;;;2.88;2.08;;;;;;;16.76;100.00;98693.81;5048518;28;20044;-40
2023/07/14 05:20:20;;;;;;;2.70;1.88;;;;;;;16.70;100.00;98701.28;5049087;28;20060;-41
2023/07/14 05:22:48;;;;;;;3.80;2.90;;;;;;;16.59;100.00;98696.84;5049301;28;20420;-40
2023/07/14 05:25:16;;;;;;;3.08;2.10;;;;;;;16.53;100.00;98698.13;5067160;28;20593;-41
2023/07/14 05:27:45;;;;;;;2.25;2.03;;;;;;;16.50;100.00;98700.13;5065903;28;20071;-41
2023/07/14 05:30:17;;;;;;;4.50;2.17;;;;;;;16.54;100.00;98702.41;5066029;28;20041;-41
2023/07/14 05:32:43;;;;;;;3.25;2.40;;;;;;;16.54;100.00;98699.78;5065777;28;20575;-40
2023/07/14 05:35:11;;;;;;;4.03;2.30;;;;;;;16.53;100.00;98703.38;5065865;28;20071;-40
2023/07/14 05:37:38;;;;;;;4.70;2.60;;;;;;;16.52;100.00;98709.56;5082657;28;20036;-40
2023/07/14 05:40:10;;;;;;;3.60;2.42;;;;;;;16.29;100.00;98657.97;5066906;28;20040;-41
2023/07/14 05:42:37;;;;;;;5.45;2.83;;;;;;;16.79;100.00;98698.84;5067353;28;20036;-40
2023/07/14 05:45:03;;;;;;;11.80;3.40;;;;;;;17.15;100.00;98696.97;5082480;28;20515;-41
2023/07/14 05:47:31;;;;;;;3.20;2.50;;;;;;;17.48;100.00;98701.44;5064550;28;20147;-40
2023/07/14 05:49:57;;;;;;;3.47;2.60;;;;;;;17.37;100.00;98665.47;5065952;28;20110;-41
2023/07/14 05:52:22;;;;;;;4.40;2.75;;;;;;;17.46;100.00;98672.63;5065845;28;20504;-40
2023/07/14 05:54:48;;;;;;;2.92;2.20;;;;;;;17.74;100.00;98705.50;5066877;28;20428;-42
2023/07/14 05:57:15;;;;;;;3.35;2.30;;;;;;;17.75;100.00;98705.38;5066650;28;20052;-42
2023/07/14 05:59:40;;;;;;;4.05;2.40;;;;;;;17.77;100.00;98721.88;5065668;28;20043;-40
2023/07/14 06:02:11;;;;;;;4.20;2.10;;;;;;;17.79;100.00;98713.88;5048916;28;20131;-41
2023/07/14 06:04:37;;;;;;;2.72;1.88;;;;;;;17.82;100.00;98718.88;5049447;28;20039;-41
2023/07/14 06:07:04;;;;;;;3.20;2.00;;;;;;;17.71;100.00;98697.84;5065820;28;20036;-41
2023/07/14 06:09:34;;;;;;;4.95;2.00;;;;;;;18.00;100.00;98711.31;5068648;28;20123;-42
2023/07/14 06:12:05;;;;;;;4.00;2.60;;;;;;;18.20;100.00;98711.38;5070464;28;20048;-42
2023/07/14 06:14:32;;;;;;;2.95;2.15;;;;;;;18.35;100.00;98709.28;5067954;28;20093;-42
2023/07/14 06:16:59;;;;;;;4.80;2.45;;;;;;;18.42;100.00;98709.63;5067324;28;20046;-41
2023/07/14 06:19:25;;;;;;;4.57;2.20;;;;;;;18.49;100.00;98710.78;5069357;28;20066;-40
2023/07/14 06:21:51;;;;;;;2.42;2.15;;;;;;;18.54;100.00;98700.75;5068696;28;20133;-41
2023/07/14 06:24:17;;;;;;;2.05;1.85;;;;;;;18.68;100.00;98705.72;5070413;28;20508;-40
2023/07/14 06:26:44;;;;;;;4.78;2.35;;;;;;;18.92;100.00;98714.19;5068558;28;20040;-40
2023/07/14 06:29:10;;;;;;;2.33;1.90;;;;;;;19.26;100.00;98725.34;5068376;28;20049;-41
2023/07/14 06:31:36;;;;;;;2.55;2.03;;;;;;;19.56;100.00;98715.81;5069070;28;20116;-42
2023/07/14 06:34:03;;;;;;;2.35;1.50;;;;;;;19.64;100.00;98719.44;5067977;28;20044;-42
2023/07/14 06:36:29;;;;;;;2.42;1.75;;;;;;;19.52;100.00;98717.06;5068545;28;20068;-41
2023/07/14 06:38:55;;;;;;;1.98;1.65;;;;;;;19.15;100.00;98709.63;5070113;28;20059;-41
2023/07/14 06:41:21;;;;;;;3.63;1.65;;;;;;;19.09;100.00;98722.47;5068473;28;20458;-40
2023/07/14 06:43:47;;;;;;;1.48;1.20;;;;;;;18.89;100.00;98732.88;5068684;28;20044;-42
2023/07/14 06:46:13;;;;;;;2.67;1.30;;;;;;;18.63;100.00;98735.03;5069837;28;20040;-42
2023/07/14 06:48:39;;;;;;;3.63;1.52;;;;;;;18.42;100.00;98741.22;5068714;28;20036;-42
2023/07/14 06:51:05;;;;;;;3.88;1.70;;;;;;;18.23;100.00;98731.31;5069844;28;20044;-43
2023/07/14 06:53:31;;;;;;;1.55;1.42;;;;;;;18.05;100.00;98714.41;5069700;28;20062;-42
2023/07/14 06:55:57;;;;;;;2.38;1.55;;;;;;;18.19;100.00;98733.38;5068306;28;20050;-40
2023/07/14 06:58:25;;;;;;;5.40;1.70;;;;;;;18.31;100.00;98718.41;5051544;28;20488;-41
2023/07/14 07:00:51;;;;;;;2.40;1.80;;;;;;;18.85;100.00;98747.28;5069418;28;20068;-42
2023/07/14 07:03:17;;;;;;;2.92;1.40;;;;;;;19.17;100.00;98741.94;5068032;28;20044;-42
2023/07/14 07:05:44;;;;;;;2.15;1.60;;;;;;;19.38;100.00;98748.03;5068089;28;20440;-42
2023/07/14 07:08:14;;;;;;;3.83;2.00;;;;;;;19.54;99.79;98757.28;5067842;28;20052;-43
2023/07/14 07:10:42;;;;;;;6.53;4.15;;;;;;;19.46;99.63;98731.59;5067716;28;20044;-42
2023/07/14 07:13:09;;;;;;;2.75;1.52;;;;;;;19.58;99.28;98746.34;5051252;28;20075;-41
2023/07/14 07:15:35;;;;;;;2.47;1.10;;;;;;;19.44;98.42;98730.84;5069064;28;20036;-41
2023/07/14 07:18:01;;;;;;;1.90;1.05;;;;;;;19.50;98.19;98751.47;5069135;28;20465;-41
2023/07/14 07:20:27;;;;;;;2.65;1.30;;;;;;;19.42;97.91;98751.22;5066682;28;20071;-42
2023/07/14 07:22:53;;;;;;;1.80;1.20;;;;;;;19.35;97.60;98758.84;5068471;28;20076;-41
2023/07/14 07:25:18;;;;;;;3.22;1.60;;;;;;;19.38;98.01;98757.72;5067099;28;20151;-55
2023/07/14 07:27:45;;;;;;;3.35;1.48;;;;;;;19.45;97.52;98756.28;5066086;28;20040;-54
2023/07/14 07:30:11;;;;;;;2.72;1.52;;;;;;;19.45;97.03;98757.13;5067105;28;20504;-49
2023/07/14 07:32:40;;;;;;;2.10;1.40;;;;;;;19.45;96.89;98730.75;5065841;28;20052;-49
2023/07/14 07:35:06;;;;;;;2.75;1.40;;;;;;;19.43;95.45;98756.38;5069864;28;20081;-51
2023/07/14 07:37:32;;;;;;;2.45;1.27;;;;;;;19.11;93.88;98742.44;5073744;28;20047;-53
2023/07/14 07:39:58;;;;;;;1.90;1.35;;;;;;;19.12;95.34;98769.63;5050143;28;20036;-49
2023/07/14 07:42:24;;;;;;;5.53;2.15;;;;;;;19.00;96.38;98771.50;5065610;28;20598;-52
2023/07/14 07:44:50;;;;;;;4.03;2.00;;;;;;;18.89;97.58;98771.56;5063987;28;20071;-56
2023/07/14 07:47:16;;;;;;;3.05;2.30;;;;;;;18.76;98.64;98768.28;5066308;28;20060;-53
2023/07/14 07:49:42;;;;;;;4.28;1.88;;;;;;;18.63;99.59;98769.25;5050420;28;20090;-59
2023/07/14 07:52:11;;;;;;;4.28;1.58;;;;;;;18.48;100.00;98772.28;5067102;28;20534;-48
2023/07/14 07:54:39;;;;;;;2.70;2.00;;;;;;;18.32;100.00;98763.97;5049788;28;20508;-53
2023/07/14 07:57:07;;;;;;;6.68;2.42;;;;;;;18.33;100.00;98776.16;5048699;28;20063;-55
2023/07/14 07:59:33;;;;;;;3.65;2.13;;;;;;;18.25;100.00;98776.78;5064979;28;20075;-50
2023/07/14 08:02:00;;;;;;;2.90;1.85;;;;;;;18.17;100.00;98782.66;5066753;28;20044;-50
2023/07/14 08:04:26;;;;;;;2.50;1.90;;;;;;;18.13;100.00;98777.75;5049861;28;20040;-52
2023/07/14 08:06:53;;;;;;;1.90;1.50;;;;;;;17.95;100.00;98756.38;5065470;28;20080;-53
2023/07/14 08:09:19;;;;;;;2.83;1.90;;;;;;;18.07;100.00;98780.88;5025087;28;20048;-55
2023/07/14 08:11:46;;;;;;;4.43;2.70;;;;;;;18.04;100.00;98779.34;5047754;28;20143;-48
2023/07/14 08:14:17;;;;;;;2.83;1.90;;;;;;;18.08;100.00;98783.38;5066439;28;20052;-52
2023/07/14 08:16:44;;;;;;;2.53;1.40;;;;;;;18.01;100.00;98773.44;5059725;28;20512;-53
2023/07/14 08:19:10;;;;;;;4.53;1.42;;;;;;;17.98;100.00;98776.34;5072780;28;20044;-53
2023/07/14 08:21:38;;;;;;;2.22;1.40;;;;;;;17.95;100.00;98789.75;5057807;28;20051;-54
2023/07/14 08:24:08;;;;;;;4.15;1.60;;;;;;;17.88;100.00;98789.38;5068896;28;20101;-54
2023/07/14 08:26:35;;;;;;;2.08;1.50;;;;;;;17.82;100.00;98789.03;5067827;28;20347;-54
2023/07/14 08:29:02;;;;;;;7.18;1.70;;;;;;;17.79;100.00;98803.25;5068848;28;20082;-51
2023/07/14 08:31:27;;;;;;;2.97;1.50;;;;;;;17.76;100.00;98799.06;5060159;28;20048;-53
2023/07/14 08:33:53;;;;;;;2.50;1.35;;;;;;;17.72;100.00;98807.31;5066696;28;20405;-54
2023/07/14 08:36:19;;;;;;;2.83;1.35;;;;;;;17.59;100.00;98785.50;5062478;28;20055;-53
2023/07/14 08:38:45;;;;;;;3.42;1.40;;;;;;;17.71;100.00;98805.63;5061154;28;20033;-53
2023/07/14 08:41:30;;;;;;;2.00;1.40;;;;;;;17.77;100.00;98799.91;5063119;28;20036;-52
2023/07/14 08:44:19;;;;;;;2.30;1.40;;;;;;;17.86;100.00;98807.06;5060242;28;20493;-50
2023/07/14 08:46:59;;;;;;;2.92;1.30;;;;;;;17.88;100.00;98810.41;5055633;28;20148;-52
2023/07/14 08:49:36;;;;;;;3.60;1.80;;;;;;;17.88;100.00;98810.41;5064962;28;20046;-50
2023/07/14 08:52:08;;;;;;;3.90;1.70;;;;;;;17.85;100.00;98799.31;5061492;28;20044;-50
2023/07/14 08:55:09;;;;;;;2.53;1.58;;;;;;;17.83;100.00;98804.69;5064173;28;20060;-56
2023/07/14 08:57:48;;;;;;;2.80;1.60;;;;;;;17.86;100.00;98809.69;5061055;28;20056;-54
2023/07/14 09:00:17;;;;;;;;;;;;;;;17.87;100.00;98807.91;5058478;28;20045;-53
2023/07/14 09:02:54;;;;;;;2.60;1.50;;;;;;;17.89;100.00;98806.00;5062665;28;19928;-53
2023/07/14 09:05:24;;;;;;;2.65;1.50;;;;;;;17.87;100.00;98794.75;5053713;28;20032;-51
2023/07/14 09:07:51;;;;;;;1.95;1.20;;;;;;;18.20;100.00;98805.25;5061535;28;20188;-52
2023/07/14 09:10:17;;;;;;;1.80;1.33;;;;;;;18.50;100.00;98800.16;5063689;28;20536;-50
2023/07/14 09:13:09;;;;;;;3.42;1.48;;;;;;;18.82;100.00;98817.81;5063672;28;20067;-54
2023/07/14 09:15:35;;;;;;;3.05;1.50;;;;;;;18.73;100.00;98771.16;5043563;28;20523;-53
2023/07/14 09:18:28;;;;;;;2.08;1.25;;;;;;;19.15;100.00;98811.56;5058231;28;20036;-51
2023/07/14 09:21:14;;;;;;;1.50;1.30;;;;;;;19.31;100.00;98806.69;5063771;28;20044;-50
2023/07/14 09:23:54;;;;;;;2.95;1.40;;;;;;;19.55;100.00;98801.16;5064787;28;20063;-54
2023/07/14 09:26:32;;;;;;;2.75;1.10;;;;;;;19.70;100.00;98805.97;5046554;28;20044;-53
2023/07/14 09:28:59;;;;;;;3.75;1.30;;;;;;;19.78;98.82;98808.75;5058528;28;20040;-52
2023/07/14 09:31:42;;;;;;;3.78;1.75;;;;;;;19.79;97.88;98807.78;5064060;28;20049;-53
2023/07/14 09:34:13;;;;;;;1.83;1.45;;;;;;;19.56;96.71;98779.94;5063235;28;20063;-54
2023/07/14 09:36:39;;;;;;;6.28;1.65;;;;;;;19.63;96.28;98807.44;5057002;28;20041;-51
2023/07/14 09:39:12;;;;;;;3.13;1.45;;;;;;;19.41;95.56;98799.66;5044569;28;20060;-54
2023/07/14 09:41:38;;;;;;;2.38;1.38;;;;;;;19.04;95.60;98762.41;5055430;28;20076;-54
2023/07/14 09:44:04;;;;;;;4.00;1.40;;;;;;;19.13;95.79;98816.94;5043516;28;20069;-55
2023/07/14 09:46:40;;;;;;;2.97;1.35;;;;;;;18.81;95.25;98788.00;5066084;28;20416;-55
2023/07/14 09:49:22;;;;;;;7.03;1.63;;;;;;;18.81;95.92;98816.97;5064905;28;20040;-53
2023/07/14 09:52:12;;;;;;;5.25;1.70;;;;;;;18.70;96.50;98824.06;5044770;28;20523;-53
2023/07/14 09:54:57;;;;;;;2.65;1.42;;;;;;;18.58;97.89;98820.63;5066708;28;20045;-54
2023/07/14 09:57:26;;;;;;;5.15;1.58;;;;;;;18.46;99.38;98818.97;5063804;28;20459;-52
2023/07/14 09:59:57;;;;;;;6.03;1.90;;;;;;;18.30;99.43;98808.00;5044947;28;20530;-56
2023/07/14 10:02:32;;;;;;;3.63;1.40;;;;;;;18.35;99.90;98824.25;5048984;28;20036;-52
2023/07/14 10:05:21;;;;;;;2.85;1.70;;;;;;;18.04;100.00;98789.84;5058785;28;20044;-50
2023/07/14 10:07:47;;;;;;;5.53;2.80;;;;;;;18.08;100.00;98822.84;5047745;28;20033;-54
2023/07/14 10:10:19;;;;;;;4.50;1.60;;;;;;;18.12;100.00;98839.22;5061721;28;20096;-53
2023/07/14 10:12:48;;;;;;;4.43;2.08;;;;;;;18.09;100.00;98836.84;5065270;28;20506;-52
2023/07/14 10:15:35;;;;;;;2.92;1.77;;;;;;;17.97;100.00;98835.16;5063207;28;20048;-51
2023/07/14 10:18:12;;;;;;;3.67;1.67;;;;;;;17.99;100.00;98843.78;5060289;28;20042;-50
2023/07/14 10:20:39;;;;;;;2.22;2.03;;;;;;;17.84;100.00;98824.78;5068877;28;20076;-51
2023/07/14 10:23:13;;;;;;;3.65;2.10;;;;;;;18.01;100.00;98850.56;5064347;28;20037;-54
2023/07/14 10:25:40;;;;;;;2.58;1.85;;;;;;;18.05;100.00;98859.91;5047761;28;20047;-53
2023/07/14 10:28:14;;;;;;;2.60;1.70;;;;;;;17.99;100.00;98828.84;5063636;28;20043;-52
2023/07/14 10:31:10;;;;;;;2.28;1.70;;;;;;;18.29;100.00;98853.66;5048663;28;20079;-55
2023/07/14 10:33:51;;;;;;;2.72;1.80;;;;;;;18.55;100.00;98860.38;5060798;28;21999;-51
2023/07/14 10:36:25;;;;;;;3.47;1.92;;;;;;;18.47;100.00;98818.00;5061537;28;20095;-52
2023/07/14 10:38:57;;;;;;;2.67;2.00;;;;;;;18.88;100.00;98860.28;5079174;28;20041;-54
2023/07/14 10:41:24;;;;;;;3.00;2.13;;;;;;;18.77;99.41;98826.09;5074520;28;20512;-55
2023/07/14 10:43:57;;;;;;;5.05;2.40;;;;;;;18.99;98.65;98862.88;5063713;28;20048;-55
2023/07/14 10:46:37;;;;;;;3.40;2.45;;;;;;;19.09;97.53;98862.13;5065621;28;20074;-54
2023/07/14 10:49:22;;;;;;;2.70;2.15;;;;;;;18.94;97.58;98822.91;5062701;28;20040;-51
2023/07/14 10:51:52;;;;;;;4.93;2.40;;;;;;;19.27;97.25;98869.34;5059084;28;20122;-54
2023/07/14 10:54:35;;;;;;;4.45;2.50;;;;;;;19.26;96.66;98869.47;5056005;28;20436;-53
2023/07/14 10:57:33;;;;;;;3.15;2.60;;;;;;;19.16;96.04;98872.00;5056158;28;20459;-54
2023/07/14 11:00:09;;;;;;;5.15;2.10;;;;;;;19.00;97.13;98842.63;5059985;28;20551;-53
2023/07/14 11:02:41;;;;;;;3.97;2.42;;;;;;;18.95;97.12;98839.53;5066904;28;20512;-49
2023/07/14 11:05:18;;;;;;;3.80;2.40;;;;;;;19.01;96.33;98866.22;5060419;28;20045;-50
2023/07/14 11:07:44;;;;;;;4.50;2.08;;;;;;;19.04;96.53;98871.25;5061765;28;20036;-58
2023/07/14 11:10:40;;;;;;;3.67;2.22;;;;;;;19.11;95.30;98876.81;5060339;28;20074;-60
2023/07/14 11:13:25;;;;;;;3.53;2.20;;;;;;;19.15;95.37;98874.81;5049120;28;20115;-54
2023/07/14 11:15:57;;;;;;;3.75;2.10;;;;;;;19.12;96.19;98875.03;5064344;28;20075;-56
2023/07/14 11:18:41;;;;;;;7.30;3.20;;;;;;;19.09;95.31;98880.56;5065065;28;20139;-51
2023/07/14 11:21:27;;;;;;;4.22;2.97;;;;;;;19.00;95.93;98877.72;5065503;28;20048;-53
2023/07/14 11:24:13;;;;;;;3.88;2.60;;;;;;;18.85;96.06;98880.75;5062821;28;20127;-54
2023/07/14 11:26:58;;;;;;;4.25;2.20;;;;;;;18.78;96.02;98880.44;5058937;28;20524;-56
2023/07/14 11:29:26;;;;;;;4.88;1.88;;;;;;;18.76;97.11;98876.25;5047556;28;20036;-51
2023/07/14 11:31:56;;;;;;;2.92;2.22;;;;;;;18.76;96.90;98878.88;5061288;28;20037;-53
2023/07/14 11:34:42;;;;;;;2.47;1.88;;;;;;;18.74;96.89;98883.41;5055604;28;20075;-51
2023/07/14 11:37:08;;;;;;;3.17;2.85;;;;;;;18.75;97.54;98885.94;5065979;28;20523;-55
2023/07/14 11:39:49;;;;;;;3.15;2.30;;;;;;;18.77;96.67;98880.56;5064434;28;20128;-56
2023/07/14 11:42:19;;;;;;;3.55;2.55;;;;;;;18.70;96.93;98855.66;5056858;28;20045;-55